sensor_id;sensor_type;location;lat;lon;timestamp;temperature;humidity
39079;DHT22;24829;49.208;12.080;2022-07-10T00:01:47;16.70;99.90
39079;DHT22;24829;49.208;12.080;2022-07-10T00:04:13;16.60;99.90
39079;DHT22;24829;49.208;12.080;2022-07-10T00:06:39;16.60;99.90
39079;DHT22;24829;49.208;12.080;2022-07-10T00:09:08;16.50;99.90
39079;DHT22;24829;49.208;12.080;2022-07-10T00:11:33;16.50;99.90
39079;DHT22;24829;49.208;12.080;2022-07-10T00:13:59;16.50;99.90
39079;DHT22;24829;49.208;12.080;2022-07-10T00:16:25;16.40;99.90
39079;DHT22;24829;49.208;12.080;2022-07-10T00:18:50;16.40;99.90
39079;DHT22;24829;49.208;12.080;2022-07-10T00:21:16;16.30;99.90
39079;DHT22;24829;49.208;12.080;2022-07-10T00:23:42;16.20;99.90
39079;DHT22;24829;49.208;12.080;2022-07-10T00:26:08;16.20;99.90
39079;DHT22;24829;49.208;12.080;2022-07-10T00:28:34;16.10;99.90
39079;DHT22;24829;49.208;12.080;2022-07-10T00:31:00;16.10;99.90
39079;DHT22;24829;49.208;12.080;2022-07-10T00:33:26;16.00;99.90
39079;DHT22;24829;49.208;12.080;2022-07-10T00:35:53;16.00;99.90
39079;DHT22;24829;49.208;12.080;2022-07-10T00:38:19;15.90;99.90
39079;DHT22;24829;49.208;12.080;2022-07-10T00:40:44;16.00;99.90
39079;DHT22;24829;49.208;12.080;2022-07-10T00:43:10;15.90;99.90
39079;DHT22;24829;49.208;12.080;2022-07-10T00:45:36;15.90;99.90
39079;DHT22;24829;49.208;12.080;2022-07-10T00:48:02;15.80;99.90
39079;DHT22;24829;49.208;12.080;2022-07-10T00:50:28;15.80;99.90
39079;DHT22;24829;49.208;12.080;2022-07-10T00:52:54;15.60;99.90
39079;DHT22;24829;49.208;12.080;2022-07-10T00:55:20;15.60;99.90
39079;DHT22;24829;49.208;12.080;2022-07-10T00:57:47;15.50;99.90
39079;DHT22;24829;49.208;12.080;2022-07-10T01:00:13;15.50;99.90
39079;DHT22;24829;49.208;12.080;2022-07-10T01:02:43;15.50;99.90
39079;DHT22;24829;49.208;12.080;2022-07-10T01:05:09;15.50;99.90
39079;DHT22;24829;49.208;12.080;2022-07-10T01:07:35;15.40;99.90
39079;DHT22;24829;49.208;12.080;2022-07-10T01:10:01;15.40;99.90
39079;DHT22;24829;49.208;12.080;2022-07-10T01:12:27;15.40;99.90
39079;DHT22;24829;49.208;12.080;2022-07-10T01:14:54;15.30;99.90
39079;DHT22;24829;49.208;12.080;2022-07-10T01:17:20;15.30;99.90
39079;DHT22;24829;49.208;12.080;2022-07-10T01:19:45;15.30;99.90
39079;DHT22;24829;49.208;12.080;2022-07-10T01:22:11;15.40;99.90
39079;DHT22;24829;49.208;12.080;2022-07-10T01:24:37;15.40;99.90
39079;DHT22;24829;49.208;12.080;2022-07-10T01:27:03;15.40;99.90
39079;DHT22;24829;49.208;12.080;2022-07-10T01:29:29;15.30;99.90
39079;DHT22;24829;49.208;12.080;2022-07-10T01:31:54;15.30;99.90
39079;DHT22;24829;49.208;12.080;2022-07-10T01:34:20;15.30;99.90
39079;DHT22;24829;49.208;12.080;2022-07-10T01:36:46;15.30;99.90
39079;DHT22;24829;49.208;12.080;2022-07-10T01:39:12;15.30;99.90
39079;DHT22;24829;49.208;12.080;2022-07-10T01:41:37;15.20;99.90
39079;DHT22;24829;49.208;12.080;2022-07-10T01:44:03;15.10;99.90
39079;DHT22;24829;49.208;12.080;2022-07-10T01:46:29;15.10;99.90
39079;DHT22;24829;49.208;12.080;2022-07-10T01:48:54;15.00;99.90
39079;DHT22;24829;49.208;12.080;2022-07-10T01:51:20;15.00;99.90
39079;DHT22;24829;49.208;12.080;2022-07-10T01:53:46;15.00;99.90
39079;DHT22;24829;49.208;12.080;2022-07-10T01:56:13;15.00;99.90
39079;DHT22;24829;49.208;12.080;2022-07-10T01:58:39;14.90;99.90
39079;DHT22;24829;49.208;12.080;2022-07-10T02:01:06;14.80;99.90
39079;DHT22;24829;49.208;12.080;2022-07-10T02:03:31;14.80;99.90
39079;DHT22;24829;49.208;12.080;2022-07-10T02:06:16;14.70;99.90
39079;DHT22;24829;49.208;12.080;2022-07-10T02:08:42;14.70;99.90
39079;DHT22;24829;49.208;12.080;2022-07-10T02:11:08;14.70;99.90
39079;DHT22;24829;49.208;12.080;2022-07-10T02:13:33;14.70;99.90
39079;DHT22;24829;49.208;12.080;2022-07-10T02:15:59;14.70;99.90
39079;DHT22;24829;49.208;12.080;2022-07-10T02:18:24;14.70;99.90
39079;DHT22;24829;49.208;12.080;2022-07-10T02:20:51;14.80;99.90
39079;DHT22;24829;49.208;12.080;2022-07-10T02:23:17;14.90;99.90
39079;DHT22;24829;49.208;12.080;2022-07-10T02:25:42;15.00;99.90
39079;DHT22;24829;49.208;12.080;2022-07-10T02:28:08;15.10;99.90
39079;DHT22;24829;49.208;12.080;2022-07-10T02:30:34;15.20;99.90
39079;DHT22;24829;49.208;12.080;2022-07-10T02:32:59;15.20;99.90
39079;DHT22;24829;49.208;12.080;2022-07-10T02:35:25;15.30;99.90
39079;DHT22;24829;49.208;12.080;2022-07-10T02:37:50;15.30;99.90
39079;DHT22;24829;49.208;12.080;2022-07-10T02:40:16;15.30;99.90
39079;DHT22;24829;49.208;12.080;2022-07-10T02:42:42;15.30;99.90
39079;DHT22;24829;49.208;12.080;2022-07-10T02:45:08;15.40;99.90
39079;DHT22;24829;49.208;12.080;2022-07-10T02:47:33;15.40;99.90
39079;DHT22;24829;49.208;12.080;2022-07-10T02:49:59;15.40;99.90
39079;DHT22;24829;49.208;12.080;2022-07-10T02:52:24;15.40;99.90
39079;DHT22;24829;49.208;12.080;2022-07-10T02:54:50;15.40;99.90
39079;DHT22;24829;49.208;12.080;2022-07-10T02:57:16;15.50;99.90
39079;DHT22;24829;49.208;12.080;2022-07-10T02:59:42;15.50;99.90
39079;DHT22;24829;49.208;12.080;2022-07-10T03:02:07;15.50;99.90
39079;DHT22;24829;49.208;12.080;2022-07-10T03:04:33;15.50;99.90
39079;DHT22;24829;49.208;12.080;2022-07-10T03:06:59;15.50;99.90
39079;DHT22;24829;49.208;12.080;2022-07-10T03:09:24;15.50;99.90
39079;DHT22;24829;49.208;12.080;2022-07-10T03:11:51;15.50;99.90
39079;DHT22;24829;49.208;12.080;2022-07-10T03:14:16;15.50;99.90
39079;DHT22;24829;49.208;12.080;2022-07-10T03:16:42;15.50;99.90
39079;DHT22;24829;49.208;12.080;2022-07-10T03:19:08;15.50;99.90
39079;DHT22;24829;49.208;12.080;2022-07-10T03:21:34;15.50;99.90
39079;DHT22;24829;49.208;12.080;2022-07-10T03:23:59;15.60;99.90
39079;DHT22;24829;49.208;12.080;2022-07-10T03:26:25;15.60;99.90
39079;DHT22;24829;49.208;12.080;2022-07-10T03:28:51;15.60;99.90
39079;DHT22;24829;49.208;12.080;2022-07-10T03:31:17;15.60;99.90
39079;DHT22;24829;49.208;12.080;2022-07-10T03:33:42;15.60;99.90
39079;DHT22;24829;49.208;12.080;2022-07-10T03:36:08;15.60;99.90
39079;DHT22;24829;49.208;12.080;2022-07-10T03:38:34;15.60;99.90
39079;DHT22;24829;49.208;12.080;2022-07-10T03:40:59;15.50;99.90
39079;DHT22;24829;49.208;12.080;2022-07-10T03:43:25;15.40;99.90
39079;DHT22;24829;49.208;12.080;2022-07-10T03:45:51;15.40;99.90
39079;DHT22;24829;49.208;12.080;2022-07-10T03:48:16;15.30;99.90
39079;DHT22;24829;49.208;12.080;2022-07-10T03:50:42;15.30;99.90
39079;DHT22;24829;49.208;12.080;2022-07-10T03:53:08;15.20;99.90
39079;DHT22;24829;49.208;12.080;2022-07-10T03:55:34;15.30;99.90
39079;DHT22;24829;49.208;12.080;2022-07-10T03:57:59;15.20;99.90
39079;DHT22;24829;49.208;12.080;2022-07-10T04:00:28;15.30;99.90
39079;DHT22;24829;49.208;12.080;2022-07-10T04:03:02;15.30;99.90
39079;DHT22;24829;49.208;12.080;2022-07-10T04:05:29;15.30;99.90
39079;DHT22;24829;49.208;12.080;2022-07-10T04:07:55;15.30;99.90
39079;DHT22;24829;49.208;12.080;2022-07-10T04:10:25;15.30;99.90
39079;DHT22;24829;49.208;12.080;2022-07-10T04:12:51;15.30;99.90
39079;DHT22;24829;49.208;12.080;2022-07-10T04:15:17;15.30;99.90
39079;DHT22;24829;49.208;12.080;2022-07-10T04:17:43;15.20;99.90
39079;DHT22;24829;49.208;12.080;2022-07-10T04:20:09;15.20;99.90
39079;DHT22;24829;49.208;12.080;2022-07-10T04:22:35;15.20;99.90
39079;DHT22;24829;49.208;12.080;2022-07-10T04:25:01;15.30;99.90
39079;DHT22;24829;49.208;12.080;2022-07-10T04:27:26;15.30;99.90
39079;DHT22;24829;49.208;12.080;2022-07-10T04:29:52;15.40;99.90
39079;DHT22;24829;49.208;12.080;2022-07-10T04:32:18;15.40;99.90
39079;DHT22;24829;49.208;12.080;2022-07-10T04:34:43;15.60;99.90
39079;DHT22;24829;49.208;12.080;2022-07-10T04:37:09;15.80;99.90
39079;DHT22;24829;49.208;12.080;2022-07-10T04:39:38;15.90;99.90
39079;DHT22;24829;49.208;12.080;2022-07-10T04:42:05;15.90;99.90
39079;DHT22;24829;49.208;12.080;2022-07-10T04:44:32;16.00;99.90
39079;DHT22;24829;49.208;12.080;2022-07-10T04:46:58;15.90;99.90
39079;DHT22;24829;49.208;12.080;2022-07-10T04:49:24;15.80;99.90
39079;DHT22;24829;49.208;12.080;2022-07-10T04:51:50;15.80;99.90
39079;DHT22;24829;49.208;12.080;2022-07-10T04:54:15;15.70;99.90
39079;DHT22;24829;49.208;12.080;2022-07-10T04:56:41;15.60;99.90
39079;DHT22;24829;49.208;12.080;2022-07-10T04:59:06;15.60;99.90
39079;DHT22;24829;49.208;12.080;2022-07-10T05:01:33;15.60;99.90
39079;DHT22;24829;49.208;12.080;2022-07-10T05:03:58;15.60;99.90
39079;DHT22;24829;49.208;12.080;2022-07-10T05:06:24;15.60;99.90
39079;DHT22;24829;49.208;12.080;2022-07-10T05:08:49;15.60;99.90
39079;DHT22;24829;49.208;12.080;2022-07-10T05:11:15;15.50;99.90
39079;DHT22;24829;49.208;12.080;2022-07-10T05:13:41;15.50;99.90
39079;DHT22;24829;49.208;12.080;2022-07-10T05:16:10;15.50;99.90
39079;DHT22;24829;49.208;12.080;2022-07-10T05:18:36;15.50;99.90
39079;DHT22;24829;49.208;12.080;2022-07-10T05:21:01;15.50;99.90
39079;DHT22;24829;49.208;12.080;2022-07-10T05:23:27;15.50;99.90
39079;DHT22;24829;49.208;12.080;2022-07-10T05:25:52;15.50;99.90
39079;DHT22;24829;49.208;12.080;2022-07-10T05:28:18;15.50;99.90
39079;DHT22;24829;49.208;12.080;2022-07-10T05:30:43;15.40;99.90
39079;DHT22;24829;49.208;12.080;2022-07-10T05:33:09;15.30;99.90
39079;DHT22;24829;49.208;12.080;2022-07-10T05:35:35;15.30;99.90
39079;DHT22;24829;49.208;12.080;2022-07-10T05:38:01;15.20;99.90
39079;DHT22;24829;49.208;12.080;2022-07-10T05:40:26;15.20;99.90
39079;DHT22;24829;49.208;12.080;2022-07-10T05:42:52;15.20;99.90
39079;DHT22;24829;49.208;12.080;2022-07-10T05:45:18;15.10;99.90
39079;DHT22;24829;49.208;12.080;2022-07-10T05:47:44;15.10;99.90
39079;DHT22;24829;49.208;12.080;2022-07-10T05:50:10;15.10;99.90
39079;DHT22;24829;49.208;12.080;2022-07-10T05:52:36;15.00;99.90
39079;DHT22;24829;49.208;12.080;2022-07-10T05:55:03;15.00;99.90
39079;DHT22;24829;49.208;12.080;2022-07-10T05:57:30;15.10;99.90
39079;DHT22;24829;49.208;12.080;2022-07-10T05:59:56;15.10;99.90
39079;DHT22;24829;49.208;12.080;2022-07-10T06:02:22;15.20;99.90
39079;DHT22;24829;49.208;12.080;2022-07-10T06:04:47;15.20;99.90
39079;DHT22;24829;49.208;12.080;2022-07-10T06:07:13;15.20;99.90
39079;DHT22;24829;49.208;12.080;2022-07-10T06:09:39;15.30;99.90
39079;DHT22;24829;49.208;12.080;2022-07-10T06:12:04;15.50;99.90
39079;DHT22;24829;49.208;12.080;2022-07-10T06:14:30;15.60;99.90
39079;DHT22;24829;49.208;12.080;2022-07-10T06:16:55;15.90;99.90
39079;DHT22;24829;49.208;12.080;2022-07-10T06:19:21;16.20;99.90
39079;DHT22;24829;49.208;12.080;2022-07-10T06:21:47;16.60;99.90
39079;DHT22;24829;49.208;12.080;2022-07-10T06:24:12;16.80;99.90
39079;DHT22;24829;49.208;12.080;2022-07-10T06:26:38;16.70;99.90
39079;DHT22;24829;49.208;12.080;2022-07-10T06:29:03;16.70;99.90
39079;DHT22;24829;49.208;12.080;2022-07-10T06:31:29;16.70;99.90
39079;DHT22;24829;49.208;12.080;2022-07-10T06:33:55;16.60;99.90
39079;DHT22;24829;49.208;12.080;2022-07-10T06:36:20;16.50;99.90
39079;DHT22;24829;49.208;12.080;2022-07-10T06:38:46;16.40;99.90
39079;DHT22;24829;49.208;12.080;2022-07-10T06:41:11;16.40;99.90
39079;DHT22;24829;49.208;12.080;2022-07-10T06:43:37;16.70;99.90
39079;DHT22;24829;49.208;12.080;2022-07-10T06:46:03;17.20;99.90
39079;DHT22;24829;49.208;12.080;2022-07-10T06:48:29;17.50;99.90
39079;DHT22;24829;49.208;12.080;2022-07-10T06:50:54;17.70;99.90
39079;DHT22;24829;49.208;12.080;2022-07-10T06:53:20;17.90;99.90
39079;DHT22;24829;49.208;12.080;2022-07-10T06:55:52;18.00;99.90
39079;DHT22;24829;49.208;12.080;2022-07-10T06:58:18;18.10;99.90
39079;DHT22;24829;49.208;12.080;2022-07-10T07:00:43;18.30;99.90
39079;DHT22;24829;49.208;12.080;2022-07-10T07:03:09;18.30;99.90
39079;DHT22;24829;49.208;12.080;2022-07-10T07:05:34;18.50;99.90
39079;DHT22;24829;49.208;12.080;2022-07-10T07:08:00;18.60;99.90
39079;DHT22;24829;49.208;12.080;2022-07-10T07:10:26;18.40;99.90
39079;DHT22;24829;49.208;12.080;2022-07-10T07:12:51;18.20;99.90
39079;DHT22;24829;49.208;12.080;2022-07-10T07:15:17;18.10;99.90
39079;DHT22;24829;49.208;12.080;2022-07-10T07:17:43;18.30;99.90
39079;DHT22;24829;49.208;12.080;2022-07-10T07:20:27;18.50;99.90
39079;DHT22;24829;49.208;12.080;2022-07-10T07:23:11;18.30;99.90
39079;DHT22;24829;49.208;12.080;2022-07-10T07:25:38;18.20;99.90
39079;DHT22;24829;49.208;12.080;2022-07-10T07:28:06;18.10;99.90
39079;DHT22;24829;49.208;12.080;2022-07-10T07:30:31;18.20;99.90
39079;DHT22;24829;49.208;12.080;2022-07-10T07:32:57;18.30;99.90
39079;DHT22;24829;49.208;12.080;2022-07-10T07:35:22;18.40;99.90
39079;DHT22;24829;49.208;12.080;2022-07-10T07:37:50;18.60;99.50
39079;DHT22;24829;49.208;12.080;2022-07-10T07:40:19;18.50;99.00
39079;DHT22;24829;49.208;12.080;2022-07-10T07:42:45;18.30;98.90
39079;DHT22;24829;49.208;12.080;2022-07-10T07:45:11;18.00;99.30
39079;DHT22;24829;49.208;12.080;2022-07-10T07:47:53;17.70;98.80
39079;DHT22;24829;49.208;12.080;2022-07-10T07:50:23;17.60;99.50
39079;DHT22;24829;49.208;12.080;2022-07-10T07:52:49;17.50;98.90
39079;DHT22;24829;49.208;12.080;2022-07-10T07:55:16;17.50;98.80
39079;DHT22;24829;49.208;12.080;2022-07-10T07:57:42;17.80;99.00
39079;DHT22;24829;49.208;12.080;2022-07-10T08:00:09;18.00;97.80
39079;DHT22;24829;49.208;12.080;2022-07-10T08:02:36;17.90;97.40
39079;DHT22;24829;49.208;12.080;2022-07-10T08:05:02;18.00;97.60
39079;DHT22;24829;49.208;12.080;2022-07-10T08:07:55;18.10;97.70
39079;DHT22;24829;49.208;12.080;2022-07-10T08:10:23;18.10;97.00
39079;DHT22;24829;49.208;12.080;2022-07-10T08:12:50;18.10;97.00
39079;DHT22;24829;49.208;12.080;2022-07-10T08:15:16;18.00;96.80
39079;DHT22;24829;49.208;12.080;2022-07-10T08:17:43;17.90;97.10
39079;DHT22;24829;49.208;12.080;2022-07-10T08:20:11;18.00;96.40
39079;DHT22;24829;49.208;12.080;2022-07-10T08:22:38;18.00;96.50
39079;DHT22;24829;49.208;12.080;2022-07-10T08:25:04;17.80;96.70
39079;DHT22;24829;49.208;12.080;2022-07-10T08:27:29;17.70;96.70
39079;DHT22;24829;49.208;12.080;2022-07-10T08:29:55;17.80;96.80
39079;DHT22;24829;49.208;12.080;2022-07-10T08:32:20;17.90;96.20
39079;DHT22;24829;49.208;12.080;2022-07-10T08:34:46;17.90;96.00
39079;DHT22;24829;49.208;12.080;2022-07-10T08:37:13;17.90;95.90
39079;DHT22;24829;49.208;12.080;2022-07-10T08:39:39;17.80;95.60
39079;DHT22;24829;49.208;12.080;2022-07-10T08:42:06;17.80;96.00
39079;DHT22;24829;49.208;12.080;2022-07-10T08:44:33;17.80;96.20
39079;DHT22;24829;49.208;12.080;2022-07-10T08:46:59;17.70;95.80
39079;DHT22;24829;49.208;12.080;2022-07-10T08:49:27;17.60;96.00
39079;DHT22;24829;49.208;12.080;2022-07-10T08:51:58;17.60;95.90
39079;DHT22;24829;49.208;12.080;2022-07-10T08:54:27;17.60;96.00
39079;DHT22;24829;49.208;12.080;2022-07-10T08:56:53;17.70;95.50
39079;DHT22;24829;49.208;12.080;2022-07-10T08:59:19;17.80;95.60
39079;DHT22;24829;49.208;12.080;2022-07-10T09:01:47;17.90;95.00
39079;DHT22;24829;49.208;12.080;2022-07-10T09:04:21;18.10;95.10
39079;DHT22;24829;49.208;12.080;2022-07-10T09:06:47;18.30;94.00
39079;DHT22;24829;49.208;12.080;2022-07-10T09:09:12;18.40;94.00
39079;DHT22;24829;49.208;12.080;2022-07-10T09:11:41;18.50;93.50
39079;DHT22;24829;49.208;12.080;2022-07-10T09:14:11;18.50;92.90
39079;DHT22;24829;49.208;12.080;2022-07-10T09:16:46;18.20;93.80
39079;DHT22;24829;49.208;12.080;2022-07-10T09:19:17;18.00;93.70
39079;DHT22;24829;49.208;12.080;2022-07-10T09:21:53;17.90;94.10
39079;DHT22;24829;49.208;12.080;2022-07-10T09:24:20;17.90;93.90
39079;DHT22;24829;49.208;12.080;2022-07-10T09:27:00;17.70;94.40
39079;DHT22;24829;49.208;12.080;2022-07-10T09:29:29;17.80;94.40
39079;DHT22;24829;49.208;12.080;2022-07-10T09:31:59;17.90;94.30
39079;DHT22;24829;49.208;12.080;2022-07-10T09:34:44;18.00;94.10
39079;DHT22;24829;49.208;12.080;2022-07-10T09:37:27;18.10;93.70
39079;DHT22;24829;49.208;12.080;2022-07-10T09:40:01;18.00;93.80
39079;DHT22;24829;49.208;12.080;2022-07-10T09:42:37;18.00;94.40
39079;DHT22;24829;49.208;12.080;2022-07-10T09:47:54;18.00;94.10
39079;DHT22;24829;49.208;12.080;2022-07-10T09:50:36;18.00;93.70
39079;DHT22;24829;49.208;12.080;2022-07-10T09:53:02;17.80;93.70
39079;DHT22;24829;49.208;12.080;2022-07-10T09:55:33;17.60;94.20
39079;DHT22;24829;49.208;12.080;2022-07-10T09:58:04;17.70;94.60
39079;DHT22;24829;49.208;12.080;2022-07-10T10:00:31;17.80;94.10
39079;DHT22;24829;49.208;12.080;2022-07-10T10:03:08;17.90;94.00
39079;DHT22;24829;49.208;12.080;2022-07-10T10:05:42;17.90;93.80
39079;DHT22;24829;49.208;12.080;2022-07-10T10:08:24;17.70;93.50
39079;DHT22;24829;49.208;12.080;2022-07-10T10:10:51;17.60;94.10
39079;DHT22;24829;49.208;12.080;2022-07-10T10:13:28;17.60;94.70
39079;DHT22;24829;49.208;12.080;2022-07-10T10:15:54;17.80;93.70
39079;DHT22;24829;49.208;12.080;2022-07-10T10:18:22;17.90;93.70
39079;DHT22;24829;49.208;12.080;2022-07-10T10:20:49;18.10;93.70
39079;DHT22;24829;49.208;12.080;2022-07-10T10:23:17;18.30;93.70
39079;DHT22;24829;49.208;12.080;2022-07-10T10:25:43;18.50;93.70
39079;DHT22;24829;49.208;12.080;2022-07-10T10:28:10;18.80;93.80
39079;DHT22;24829;49.208;12.080;2022-07-10T10:30:38;19.10;93.10
39079;DHT22;24829;49.208;12.080;2022-07-10T10:36:10;19.00;92.30
39079;DHT22;24829;49.208;12.080;2022-07-10T10:41:31;18.80;92.80
39079;DHT22;24829;49.208;12.080;2022-07-10T10:46:54;18.70;92.00
39079;DHT22;24829;49.208;12.080;2022-07-10T10:49:23;18.60;92.10
39079;DHT22;24829;49.208;12.080;2022-07-10T10:51:59;18.60;92.10
39079;DHT22;24829;49.208;12.080;2022-07-10T10:54:26;18.60;91.60
39079;DHT22;24829;49.208;12.080;2022-07-10T10:57:14;18.60;91.80
39079;DHT22;24829;49.208;12.080;2022-07-10T10:59:51;18.60;92.00
39079;DHT22;24829;49.208;12.080;2022-07-10T11:02:31;18.50;91.10
39079;DHT22;24829;49.208;12.080;2022-07-10T11:08:02;18.40;91.60
39079;DHT22;24829;49.208;12.080;2022-07-10T11:10:31;18.50;91.20
39079;DHT22;24829;49.208;12.080;2022-07-10T11:15:28;18.30;91.40
39079;DHT22;24829;49.208;12.080;2022-07-10T11:17:56;18.30;92.10
39079;DHT22;24829;49.208;12.080;2022-07-10T11:20:23;18.30;91.70
39079;DHT22;24829;49.208;12.080;2022-07-10T11:26:00;18.50;91.90
39079;DHT22;24829;49.208;12.080;2022-07-10T11:28:54;18.70;91.60
39079;DHT22;24829;49.208;12.080;2022-07-10T11:31:21;18.70;91.50
39079;DHT22;24829;49.208;12.080;2022-07-10T11:33:49;18.70;90.70
39079;DHT22;24829;49.208;12.080;2022-07-10T11:38:44;18.70;90.80
39079;DHT22;24829;49.208;12.080;2022-07-10T11:41:17;18.80;91.00
39079;DHT22;24829;49.208;12.080;2022-07-10T11:43:51;18.80;90.40
39079;DHT22;24829;49.208;12.080;2022-07-10T11:46:17;18.60;90.40
39079;DHT22;24829;49.208;12.080;2022-07-10T11:48:44;18.60;90.30
39079;DHT22;24829;49.208;12.080;2022-07-10T11:51:17;18.60;90.30
39079;DHT22;24829;49.208;12.080;2022-07-10T11:53:53;18.50;90.90
39079;DHT22;24829;49.208;12.080;2022-07-10T11:56:19;18.60;90.70
39079;DHT22;24829;49.208;12.080;2022-07-10T11:58:56;18.70;90.60
39079;DHT22;24829;49.208;12.080;2022-07-10T12:01:22;18.60;90.20
39079;DHT22;24829;49.208;12.080;2022-07-10T12:03:56;18.50;90.30
39079;DHT22;24829;49.208;12.080;2022-07-10T12:06:23;18.30;90.20
39079;DHT22;24829;49.208;12.080;2022-07-10T12:08:48;18.10;90.70
39079;DHT22;24829;49.208;12.080;2022-07-10T12:11:18;18.10;90.90
39079;DHT22;24829;49.208;12.080;2022-07-10T12:13:46;18.10;90.60
39079;DHT22;24829;49.208;12.080;2022-07-10T12:16:12;18.20;90.60
39079;DHT22;24829;49.208;12.080;2022-07-10T12:18:38;18.20;90.50
39079;DHT22;24829;49.208;12.080;2022-07-10T12:21:07;18.40;90.50
39079;DHT22;24829;49.208;12.080;2022-07-10T12:23:34;18.50;90.40
39079;DHT22;24829;49.208;12.080;2022-07-10T12:26:00;18.70;89.70
39079;DHT22;24829;49.208;12.080;2022-07-10T12:28:28;18.70;89.80
39079;DHT22;24829;49.208;12.080;2022-07-10T12:30:54;18.80;89.60
39079;DHT22;24829;49.208;12.080;2022-07-10T12:33:22;18.70;89.60
39079;DHT22;24829;49.208;12.080;2022-07-10T12:35:49;18.60;89.40
39079;DHT22;24829;49.208;12.080;2022-07-10T12:38:19;18.50;89.40
39079;DHT22;24829;49.208;12.080;2022-07-10T12:40:45;18.40;89.70
39079;DHT22;24829;49.208;12.080;2022-07-10T12:43:11;18.40;89.80
39079;DHT22;24829;49.208;12.080;2022-07-10T12:45:38;18.40;88.50
39079;DHT22;24829;49.208;12.080;2022-07-10T12:48:04;18.40;88.60
39079;DHT22;24829;49.208;12.080;2022-07-10T12:50:31;18.50;87.40
39079;DHT22;24829;49.208;12.080;2022-07-10T12:53:08;18.60;89.10
39079;DHT22;24829;49.208;12.080;2022-07-10T12:55:37;18.80;87.20
39079;DHT22;24829;49.208;12.080;2022-07-10T12:58:06;19.00;86.50
39079;DHT22;24829;49.208;12.080;2022-07-10T13:00:35;19.10;85.90
39079;DHT22;24829;49.208;12.080;2022-07-10T13:03:05;19.10;86.30
39079;DHT22;24829;49.208;12.080;2022-07-10T13:05:41;19.00;86.90
39079;DHT22;24829;49.208;12.080;2022-07-10T13:08:20;19.10;86.10
39079;DHT22;24829;49.208;12.080;2022-07-10T13:10:57;19.00;85.70
39079;DHT22;24829;49.208;12.080;2022-07-10T13:13:26;19.00;85.50
39079;DHT22;24829;49.208;12.080;2022-07-10T13:15:53;19.00;85.00
39079;DHT22;24829;49.208;12.080;2022-07-10T13:18:28;19.00;85.40
39079;DHT22;24829;49.208;12.080;2022-07-10T13:20:56;19.00;85.90
39079;DHT22;24829;49.208;12.080;2022-07-10T13:23:23;18.90;86.10
39079;DHT22;24829;49.208;12.080;2022-07-10T13:25:51;18.80;86.20
39079;DHT22;24829;49.208;12.080;2022-07-10T13:28:17;18.80;85.50
39079;DHT22;24829;49.208;12.080;2022-07-10T13:30:43;18.70;85.70
39079;DHT22;24829;49.208;12.080;2022-07-10T13:33:09;18.70;86.80
39079;DHT22;24829;49.208;12.080;2022-07-10T13:35:36;18.70;86.90
39079;DHT22;24829;49.208;12.080;2022-07-10T13:38:03;18.60;87.60
39079;DHT22;24829;49.208;12.080;2022-07-10T13:40:34;18.60;86.80
39079;DHT22;24829;49.208;12.080;2022-07-10T13:43:00;18.70;86.50
39079;DHT22;24829;49.208;12.080;2022-07-10T13:45:26;18.70;87.20
39079;DHT22;24829;49.208;12.080;2022-07-10T13:47:58;18.90;88.10
39079;DHT22;24829;49.208;12.080;2022-07-10T13:50:24;18.90;88.50
39079;DHT22;24829;49.208;12.080;2022-07-10T13:52:50;19.00;88.90
39079;DHT22;24829;49.208;12.080;2022-07-10T13:55:16;19.20;89.00
39079;DHT22;24829;49.208;12.080;2022-07-10T13:57:42;19.30;87.40
39079;DHT22;24829;49.208;12.080;2022-07-10T14:00:09;19.50;86.60
39079;DHT22;24829;49.208;12.080;2022-07-10T14:02:35;19.70;84.50
39079;DHT22;24829;49.208;12.080;2022-07-10T14:05:02;19.80;84.40
39079;DHT22;24829;49.208;12.080;2022-07-10T14:07:28;19.70;84.70
39079;DHT22;24829;49.208;12.080;2022-07-10T14:09:54;19.60;82.80
39079;DHT22;24829;49.208;12.080;2022-07-10T14:12:19;19.60;83.40
39079;DHT22;24829;49.208;12.080;2022-07-10T14:14:46;19.50;83.90
39079;DHT22;24829;49.208;12.080;2022-07-10T14:17:12;19.30;85.10
39079;DHT22;24829;49.208;12.080;2022-07-10T14:19:38;19.30;85.70
39079;DHT22;24829;49.208;12.080;2022-07-10T14:22:03;19.30;85.80
39079;DHT22;24829;49.208;12.080;2022-07-10T14:24:29;19.50;86.20
39079;DHT22;24829;49.208;12.080;2022-07-10T14:26:55;19.70;86.00
39079;DHT22;24829;49.208;12.080;2022-07-10T14:29:20;19.90;85.90
39079;DHT22;24829;49.208;12.080;2022-07-10T14:31:46;20.00;84.90
39079;DHT22;24829;49.208;12.080;2022-07-10T14:34:15;20.00;85.10
39079;DHT22;24829;49.208;12.080;2022-07-10T14:36:40;20.10;84.50
39079;DHT22;24829;49.208;12.080;2022-07-10T14:39:06;20.00;82.70
39079;DHT22;24829;49.208;12.080;2022-07-10T14:41:32;19.70;82.80
39079;DHT22;24829;49.208;12.080;2022-07-10T14:43:58;19.50;84.30
39079;DHT22;24829;49.208;12.080;2022-07-10T14:46:23;19.40;84.00
39079;DHT22;24829;49.208;12.080;2022-07-10T14:48:50;19.30;84.70
39079;DHT22;24829;49.208;12.080;2022-07-10T14:51:15;19.20;84.90
39079;DHT22;24829;49.208;12.080;2022-07-10T14:53:41;19.10;85.40
39079;DHT22;24829;49.208;12.080;2022-07-10T14:56:08;19.00;86.10
39079;DHT22;24829;49.208;12.080;2022-07-10T14:58:34;19.00;86.20
39079;DHT22;24829;49.208;12.080;2022-07-10T15:00:59;19.00;85.80
39079;DHT22;24829;49.208;12.080;2022-07-10T15:03:26;19.10;86.00
39079;DHT22;24829;49.208;12.080;2022-07-10T15:05:51;19.10;85.40
39079;DHT22;24829;49.208;12.080;2022-07-10T15:08:25;19.20;85.60
39079;DHT22;24829;49.208;12.080;2022-07-10T15:10:51;19.10;84.70
39079;DHT22;24829;49.208;12.080;2022-07-10T15:13:16;19.10;84.80
39079;DHT22;24829;49.208;12.080;2022-07-10T15:15:42;19.20;84.40
39079;DHT22;24829;49.208;12.080;2022-07-10T15:18:08;19.20;84.10
39079;DHT22;24829;49.208;12.080;2022-07-10T15:20:34;19.10;85.20
39079;DHT22;24829;49.208;12.080;2022-07-10T15:23:02;19.10;83.90
39079;DHT22;24829;49.208;12.080;2022-07-10T15:25:28;19.10;84.00
39079;DHT22;24829;49.208;12.080;2022-07-10T15:27:54;19.00;83.50
39079;DHT22;24829;49.208;12.080;2022-07-10T15:30:21;18.90;84.30
39079;DHT22;24829;49.208;12.080;2022-07-10T15:32:46;18.90;84.30
39079;DHT22;24829;49.208;12.080;2022-07-10T15:35:12;18.90;84.10
39079;DHT22;24829;49.208;12.080;2022-07-10T15:37:38;18.80;84.80
39079;DHT22;24829;49.208;12.080;2022-07-10T15:40:05;18.80;84.40